Time;durP1;ratioP1;P1;durP2;ratioP2;P2;SDS_P1;SDS_P2;PMS_P1;PMS_P2;Temp;Humidity;BMP_temperature;BMP_pressure;BME280_temperature;BME280_humidity;BME280_pressure;Samples;Min_cycle;Max_cycle;Signal;HPM_P1;HPM_P2
2021/12/29 00:01:28;;;;;;;1.90;1.55;;;12.00;77.70;;;;;;6208449;22;20019;-90
2021/12/29 00:04:17;;;;;;;2.72;1.80;;;12.00;77.80;;;;;;6287393;22;20037;-90
2021/12/29 00:07:20;;;;;;;1.80;1.60;;;12.00;77.80;;;;;;6283933;22;19999;-90
2021/12/29 00:09:59;;;;;;;2.05;1.58;;;11.90;77.70;;;;;;6258318;22;20018;-89
2021/12/29 00:12:39;;;;;;;2.40;1.48;;;12.00;77.70;;;;;;6281867;22;20429;-90
2021/12/29 00:15:25;;;;;;;2.53;1.60;;;12.00;77.70;;;;;;6308908;22;19999;-90
2021/12/29 00:18:05;;;;;;;2.08;1.45;;;12.00;77.70;;;;;;6257066;22;20064;-91
2021/12/29 00:20:43;;;;;;;1.60;1.50;;;12.00;77.70;;;;;;6255431;22;20001;-92
2021/12/29 00:23:17;;;;;;;2.08;1.67;;;12.00;77.80;;;;;;6255183;22;20011;-91
2021/12/29 00:26:12;;;;;;;;;;;;;;;;;;;;;
2021/12/29 00:28:43;;;;;;;2.28;1.63;;;11.90;77.70;;;;;;6280647;22;20003;-90
2021/12/29 00:31:16;;;;;;;1.50;1.30;;;12.00;77.70;;;;;;6281426;22;20004;-90
2021/12/29 00:34:05;;;;;;;2.65;1.77;;;12.00;77.70;;;;;;6284312;22;20022;-91
2021/12/29 00:36:59;;;;;;;2.33;1.40;;;12.00;77.70;;;;;;6222850;22;20006;-89
2021/12/29 00:39:46;;;;;;;2.75;1.70;;;12.00;77.70;;;;;;6263988;22;20109;-91
2021/12/29 00:42:52;;;;;;;1.92;1.58;;;12.00;78.30;;;;;;6268945;22;20007;-90
2021/12/29 00:45:39;;;;;;;2.22;1.63;;;11.90;77.70;;;;;;6253502;22;20027;-89
2021/12/29 00:48:10;;;;;;;2.47;1.70;;;12.00;77.70;;;;;;6224188;22;20053;-89
2021/12/29 00:50:45;;;;;;;2.45;1.77;;;12.00;77.80;;;;;;6223889;22;20015;-89
2021/12/29 00:53:22;;;;;;;1.85;1.52;;;12.00;77.80;;;;;;6225770;22;20637;-91
2021/12/29 00:56:21;;;;;;;;;;;;;;;;;;;;;
2021/12/29 00:58:50;;;;;;;2.00;1.50;;;12.00;77.90;;;;;;6226259;22;20096;-90
2021/12/29 01:01:18;;;;;;;1.52;1.38;;;12.00;77.70;;;;;;6224000;22;20014;-90
2021/12/29 01:03:57;;;;;;;2.15;1.50;;;12.00;77.70;;;;;;6228467;22;20498;-90
2021/12/29 01:06:52;;;;;;;1.90;1.73;;;12.00;78.40;;;;;;6227184;22;20011;-90
2021/12/29 01:09:35;;;;;;;2.50;1.60;;;12.00;77.70;;;;;;6275939;22;20033;-90
2021/12/29 01:12:15;;;;;;;1.80;1.65;;;12.00;77.70;;;;;;6227270;22;20008;-91
2021/12/29 01:15:14;;;;;;;1.63;1.52;;;12.00;77.70;;;;;;6251952;22;20012;-91
2021/12/29 01:17:52;;;;;;;2.55;1.48;;;12.00;77.70;;;;;;6256416;22;20489;-90
2021/12/29 01:20:57;;;;;;;2.42;1.60;;;12.00;77.70;;;;;;6231219;22;20067;-91
2021/12/29 01:29:52;;;;;;;1.70;1.58;;;12.00;77.70;;;;;;6271409;22;20082;-90
2021/12/29 01:32:40;;;;;;;2.50;1.60;;;12.00;77.70;;;;;;6212000;22;20122;-90
2021/12/29 01:35:11;;;;;;;2.50;1.58;;;12.00;77.70;;;;;;6228680;22;20003;-90
2021/12/29 01:37:44;;;;;;;1.65;1.50;;;12.00;77.70;;;;;;6226200;22;20004;-89
2021/12/29 01:40:22;;;;;;;2.53;1.60;;;12.00;77.80;;;;;;6228212;22;20023;-90
2021/12/29 01:43:18;;;;;;;2.78;1.83;;;12.00;77.70;;;;;;6252996;22;20079;-89
2021/12/29 01:46:04;;;;;;;2.25;1.60;;;12.00;77.80;;;;;;6246006;23;20008;-89
2021/12/29 01:48:42;;;;;;;1.50;1.40;;;12.00;78.30;;;;;;6221146;23;20058;-90
2021/12/29 01:51:20;;;;;;;2.30;1.80;;;12.00;77.80;;;;;;6220396;23;20058;-89
2021/12/29 01:54:04;;;;;;;2.42;1.60;;;12.00;77.70;;;;;;6245625;23;20000;-89
2021/12/29 01:56:42;;;;;;;1.70;1.52;;;12.00;77.70;;;;;;6218012;23;20009;-91
2021/12/29 01:59:42;;;;;;;2.08;1.67;;;12.00;77.70;;;;;;6222325;23;20008;-89
2021/12/29 02:02:50;;;;;;;;;;;;;;;;;;;;;
2021/12/29 02:05:47;;;;;;;2.22;1.70;;;12.00;77.80;;;;;;6246314;23;20008;-89
2021/12/29 02:08:48;;;;;;;1.88;1.63;;;12.00;77.80;;;;;;6246278;23;20509;-90
2021/12/29 02:11:35;;;;;;;3.25;1.80;;;12.00;77.90;;;;;;6220982;23;20012;-90
2021/12/29 02:14:31;;;;;;;2.33;1.90;;;12.00;77.80;;;;;;6247703;23;20019;-90
2021/12/29 02:17:45;;;;;;;3.03;1.95;;;12.00;77.70;;;;;;6241490;23;20366;-90
2021/12/29 02:20:20;;;;;;;2.30;1.52;;;12.00;77.90;;;;;;6220689;23;20012;-90
2021/12/29 02:23:15;;;;;;;1.63;1.40;;;12.00;77.70;;;;;;6245594;23;20004;-90
2021/12/29 02:26:12;;;;;;;3.13;1.88;;;12.00;77.80;;;;;;6201211;23;20034;-90
2021/12/29 02:29:51;;;;;;;3.00;2.15;;;12.00;77.90;;;;;;6183209;23;20015;-90
2021/12/29 02:32:00;;;;;;;;;;;12.00;77.80;;;;;;6228957;23;20014;-90
2021/12/29 02:34:39;;;;;;;2.28;1.83;;;12.00;77.70;;;;;;6245597;23;19939;-91
2021/12/29 02:37:09;;;;;;;3.75;2.05;;;12.00;77.70;;;;;;6221037;23;20000;-91
2021/12/29 02:39:59;;;;;;;3.40;1.90;;;12.00;77.80;;;;;;6245658;23;20066;-91
2021/12/29 02:43:11;;;;;;;3.65;2.08;;;12.00;77.90;;;;;;6222071;23;20011;-91
2021/12/29 02:45:51;;;;;;;2.63;1.95;;;12.00;77.80;;;;;;6245483;23;20103;-91
2021/12/29 02:48:23;;;;;;;3.57;2.27;;;12.00;77.80;;;;;;6221470;23;20062;-91
2021/12/29 02:50:55;;;;;;;3.58;2.03;;;12.00;77.80;;;;;;6245798;22;20085;-92
2021/12/29 02:56:54;;;;;;;;;;;;;;;;;;;;;
2021/12/29 02:59:56;;;;;;;2.22;1.73;;;12.00;77.80;;;;;;6246280;23;20091;-90
2021/12/29 03:02:35;;;;;;;3.30;2.00;;;12.00;77.90;;;;;;6223183;23;20008;-91
2021/12/29 03:05:11;;;;;;;2.75;1.90;;;12.00;77.80;;;;;;6245446;23;20007;-90
2021/12/29 03:08:00;;;;;;;2.97;2.17;;;12.10;77.90;;;;;;6220178;23;20099;-92
2021/12/29 03:10:54;;;;;;;;;;;;;;;;;;;;;
2021/12/29 03:13:39;;;;;;;3.25;2.10;;;12.00;77.80;;;;;;6244493;23;20011;-90
2021/12/29 03:16:32;;;;;;;3.28;2.22;;;12.10;77.80;;;;;;6221152;23;20014;-91
2021/12/29 03:19:38;;;;;;;3.88;2.10;;;12.00;77.80;;;;;;6197918;23;20046;-91
2021/12/29 03:22:08;;;;;;;;;;;12.00;78.00;;;;;;6245111;23;20015;-90
2021/12/29 03:25:10;;;;;;;;;;;;;;;;;;;;;
2021/12/29 03:27:46;;;;;;;2.10;1.83;;;12.00;77.90;;;;;;6222269;23;20386;-90
2021/12/29 03:30:56;;;;;;;2.75;1.95;;;12.00;77.80;;;;;;6245018;23;20008;-91
2021/12/29 03:33:29;;;;;;;3.08;1.83;;;12.00;77.90;;;;;;6245008;23;20019;-89
2021/12/29 03:36:07;;;;;;;;;;;12.00;77.90;;;;;;6220973;23;20115;-91
2021/12/29 03:38:49;;;;;;;2.83;2.03;;;12.00;77.80;;;;;;6220524;23;19969;-90
2021/12/29 03:41:24;;;;;;;2.95;2.05;;;12.00;77.80;;;;;;6219544;23;20095;-90
2021/12/29 03:44:05;;;;;;;;;;;;;;;;;;;;;
2021/12/29 03:46:46;;;;;;;3.35;2.20;;;12.00;77.90;;;;;;6245284;23;20012;-91
2021/12/29 03:49:32;;;;;;;2.97;2.15;;;12.00;77.90;;;;;;6277190;22;20016;-90
2021/12/29 03:52:05;;;;;;;3.83;2.10;;;12.00;77.80;;;;;;6231514;23;20000;-91
2021/12/29 03:54:39;;;;;;;2.72;1.77;;;12.00;77.90;;;;;;6255116;23;20000;-91
2021/12/29 03:57:17;;;;;;;;;;;;;;;;;;;;;
2021/12/29 04:00:07;;;;;;;2.85;1.75;;;12.00;77.80;;;;;;6246238;23;20095;-90
2021/12/29 04:08:51;;;;;;;2.83;2.10;;;12.10;77.80;;;;;;6271176;22;20094;-90
2021/12/29 04:11:26;;;;;;;3.42;2.30;;;12.00;77.90;;;;;;6220209;23;20012;-90
2021/12/29 04:14:05;;;;;;;4.03;2.15;;;12.00;77.80;;;;;;6220512;23;20374;-91
2021/12/29 04:16:55;;;;;;;3.13;2.00;;;12.00;77.80;;;;;;6220708;23;20035;-91
2021/12/29 04:20:54;;;;;;;3.03;2.15;;;12.00;77.80;;;;;;6246122;23;20079;-91
2021/12/29 04:22:40;;;;;;;3.42;2.25;;;12.00;77.80;;;;;;6249113;23;20004;-91
2021/12/29 04:25:23;;;;;;;2.67;2.10;;;12.00;77.80;;;;;;6247927;22;20087;-90
2021/12/29 04:28:03;;;;;;;3.53;2.10;;;12.00;77.80;;;;;;6247940;22;20091;-90
2021/12/29 04:30:37;;;;;;;5.07;2.38;;;12.00;77.80;;;;;;6194503;23;20281;-91
2021/12/29 04:33:35;;;;;;;3.53;2.03;;;12.00;77.80;;;;;;6219370;23;20043;-90
2021/12/29 04:36:07;;;;;;;3.13;2.03;;;12.00;77.90;;;;;;6245220;23;20419;-90
2021/12/29 04:38:36;;;;;;;;;;;12.00;77.80;;;;;;6221914;23;20016;-90
2021/12/29 04:41:12;;;;;;;3.53;2.13;;;12.00;77.70;;;;;;6245150;23;19970;-90
2021/12/29 04:43:45;;;;;;;3.83;2.30;;;12.00;77.70;;;;;;6243702;22;20098;-90
2021/12/29 04:46:35;;;;;;;3.55;2.35;;;12.00;77.80;;;;;;6244080;23;20062;-91
2021/12/29 04:49:13;;;;;;;2.58;2.00;;;12.00;77.90;;;;;;6219468;23;20019;-90
2021/12/29 04:52:03;;;;;;;4.00;2.35;;;12.00;77.90;;;;;;6244501;23;20000;-91
2021/12/29 04:54:49;;;;;;;3.63;2.08;;;12.00;77.90;;;;;;6243808;23;20327;-93
2021/12/29 04:57:28;;;;;;;;;;;;;;;;;;;;;
2021/12/29 05:00:30;;;;;;;2.70;1.98;;;12.00;77.80;;;;;;6245668;23;20111;-92
2021/12/29 05:08:46;;;;;;;2.75;1.88;;;12.00;77.80;;;;;;6267779;22;20008;-91
2021/12/29 05:11:35;;;;;;;3.03;1.90;;;12.00;77.80;;;;;;6269728;22;20419;-91
2021/12/29 05:14:13;;;;;;;3.50;2.08;;;12.00;77.90;;;;;;6244131;23;20360;-91
2021/12/29 05:16:58;;;;;;;3.47;2.15;;;12.00;77.90;;;;;;6268329;22;20045;-91
2021/12/29 05:19:52;;;;;;;3.03;1.92;;;12.00;77.80;;;;;;6265926;22;20507;-91
2021/12/29 05:22:29;;;;;;;3.33;2.00;;;12.00;77.90;;;;;;6244303;23;20431;-91
2021/12/29 05:25:02;;;;;;;4.10;2.05;;;12.00;78.00;;;;;;6244278;22;19996;-92
2021/12/29 05:27:39;;;;;;;2.20;1.80;;;12.00;77.90;;;;;;6219116;23;20012;-91
2021/12/29 05:33:30;;;;;;;4.50;2.25;;;12.00;77.90;;;;;;6262864;22;20083;-91
2021/12/29 05:36:13;;;;;;;3.83;2.08;;;12.00;78.00;;;;;;6226275;23;20112;-90
2021/12/29 05:42:14;;;;;;;;;;;12.00;77.90;;;;;;6235682;23;20020;-90
2021/12/29 05:45:04;;;;;;;2.30;1.75;;;12.00;77.80;;;;;;6274117;22;19918;-90
2021/12/29 05:48:04;;;;;;;3.22;1.67;;;12.00;77.80;;;;;;6273757;22;20016;-91
2021/12/29 05:50:35;;;;;;;3.65;2.00;;;12.00;77.90;;;;;;6274014;22;20058;-90
2021/12/29 05:53:10;;;;;;;2.00;1.80;;;12.00;78.00;;;;;;6249483;22;20008;-90
2021/12/29 05:55:44;;;;;;;1.80;1.65;;;12.00;78.00;;;;;;6249580;22;20000;-91
2021/12/29 05:58:25;;;;;;;2.55;2.00;;;12.00;78.00;;;;;;6252098;22;20075;-90
2021/12/29 06:01:12;;;;;;;2.38;1.83;;;12.00;78.00;;;;;;6274372;22;20133;-90
2021/12/29 06:03:43;;;;;;;3.80;2.22;;;12.00;77.90;;;;;;6248987;22;20000;-90
2021/12/29 06:06:40;;;;;;;2.58;1.83;;;12.00;77.90;;;;;;6252160;22;20081;-90
2021/12/29 06:09:49;;;;;;;2.50;1.90;;;12.00;78.60;;;;;;6254519;22;20018;-92
2021/12/29 06:12:20;;;;;;;3.00;1.88;;;12.00;78.10;;;;;;6278569;22;20453;-90
2021/12/29 06:15:09;;;;;;;3.70;2.20;;;12.00;77.80;;;;;;6251630;22;20008;-89
2021/12/29 06:21:18;;;;;;;;;;;;;;;;;;;;;
2021/12/29 06:25:33;;;;;;;;;;;;;;;;;;;;;
2021/12/29 06:29:11;;;;;;;;;;;;;;;;;;;;;
2021/12/29 06:32:40;;;;;;;;;;;;;;;;;;;;;
2021/12/29 06:35:47;;;;;;;;;;;;;;;;;;;;;
2021/12/29 06:39:25;;;;;;;2.22;1.75;;;12.00;78.10;;;;;;6275061;22;20020;-91
2021/12/29 06:42:05;;;;;;;2.95;2.17;;;12.00;78.00;;;;;;6275374;22;20487;-92
2021/12/29 06:44:52;;;;;;;2.63;1.88;;;12.00;78.00;;;;;;6239361;23;20035;-86
2021/12/29 06:47:31;;;;;;;;;;;;;;;;;;;;;
2021/12/29 06:49:57;;;;;;;2.70;2.00;;;12.00;78.10;;;;;;6222428;23;20016;-90
2021/12/29 06:52:38;;;;;;;2.22;1.75;;;12.00;78.00;;;;;;6221668;23;20000;-87
2021/12/29 06:55:05;;;;;;;3.40;2.30;;;11.90;78.00;;;;;;6220503;23;20004;-88
2021/12/29 06:57:36;;;;;;;3.45;2.30;;;12.00;78.00;;;;;;6245577;23;20000;-88
2021/12/29 07:00:53;;;;;;;3.58;2.17;;;12.00;78.00;;;;;;6195933;23;20008;-88
2021/12/29 07:04:04;;;;;;;2.90;2.22;;;12.00;78.10;;;;;;6246307;23;20004;-87
2021/12/29 07:06:44;;;;;;;3.45;2.28;;;12.00;77.90;;;;;;6245530;23;20092;-88
2021/12/29 07:09:30;;;;;;;3.22;2.10;;;12.00;77.90;;;;;;6220640;23;20036;-92
2021/12/29 07:12:03;;;;;;;3.00;2.38;;;12.00;78.10;;;;;;6245051;23;20439;-87
2021/12/29 07:14:45;;;;;;;3.05;2.08;;;12.00;78.00;;;;;;6245254;23;20008;-88
2021/12/29 07:17:11;;;;;;;3.58;2.38;;;12.00;78.00;;;;;;6245265;23;20000;-89
2021/12/29 07:19:57;;;;;;;;;;;;;;;;;;;;;
2021/12/29 07:22:28;;;;;;;3.03;2.20;;;12.00;78.00;;;;;;6222569;23;20012;-90
2021/12/29 07:25:00;;;;;;;3.72;2.25;;;12.00;78.00;;;;;;6194983;23;20004;-89
2021/12/29 07:27:37;;;;;;;3.28;2.53;;;12.00;78.00;;;;;;6219904;23;20007;-88
2021/12/29 07:30:06;;;;;;;4.40;2.60;;;12.00;78.00;;;;;;6220945;23;20015;-89
2021/12/29 07:32:35;;;;;;;3.95;2.45;;;12.00;78.00;;;;;;6195095;23;20136;-90
2021/12/29 07:35:13;;;;;;;3.65;2.70;;;12.00;77.90;;;;;;6197570;23;20016;-89
2021/12/29 07:37:47;;;;;;;3.72;2.65;;;12.00;78.00;;;;;;6176602;23;20058;-92
2021/12/29 07:40:20;;;;;;;2.88;2.30;;;12.00;77.90;;;;;;6221041;23;20013;-93
2021/12/29 07:42:50;;;;;;;3.83;2.67;;;12.00;78.00;;;;;;6196469;23;20074;-90
2021/12/29 07:45:19;;;;;;;4.13;2.45;;;12.00;77.90;;;;;;6245027;22;20016;-92
2021/12/29 07:48:04;;;;;;;3.40;2.35;;;12.00;77.90;;;;;;6219944;23;19999;-90
2021/12/29 07:51:04;;;;;;;4.75;2.47;;;12.00;78.00;;;;;;6209872;23;20015;-89
2021/12/29 07:53:57;;;;;;;3.85;2.58;;;12.00;78.00;;;;;;6221415;23;20022;-91
2021/12/29 07:56:48;;;;;;;2.90;2.35;;;12.00;77.90;;;;;;6199515;23;20015;-89
2021/12/29 07:59:34;;;;;;;3.83;2.40;;;12.00;78.00;;;;;;6220898;23;20005;-88
2021/12/29 08:02:47;;;;;;;2.63;2.10;;;12.00;77.90;;;;;;6245810;23;20075;-88
2021/12/29 08:05:40;;;;;;;;;;;;;;;;;;;;;
2021/12/29 08:08:36;;;;;;;3.80;2.45;;;12.00;78.00;;;;;;6136016;23;20050;-92
2021/12/29 08:11:16;;;;;;;3.93;2.70;;;12.00;78.00;;;;;;6220704;23;20008;-92
2021/12/29 08:15:05;;;;;;;3.88;2.90;;;12.00;78.00;;;;;;6192939;23;20011;-90
2021/12/29 08:17:47;;;;;;;3.33;2.45;;;12.00;78.00;;;;;;6245496;23;20080;-91
2021/12/29 08:25:10;;;;;;;;;;;;;;;;;;;;;
2021/12/29 08:28:22;;;;;;;;;;;;;;;;;;;;;
2021/12/29 08:35:29;;;;;;;3.03;2.15;;;11.90;78.10;;;;;;6157022;23;20449;-90
2021/12/29 08:38:16;;;;;;;3.80;2.58;;;11.90;78.10;;;;;;6176991;23;20008;-91
2021/12/29 08:41:40;;;;;;;3.58;2.53;;;11.90;78.10;;;;;;6213193;23;20020;-93
2021/12/29 08:44:39;;;;;;;;;;;;;;;;;;;;;
2021/12/29 08:48:22;;;;;;;3.75;2.60;;;11.90;78.10;;;;;;6245819;23;20099;-93
2021/12/29 08:51:19;;;;;;;3.45;2.25;;;11.90;78.20;;;;;;6245733;23;20083;-92
2021/12/29 08:58:13;;;;;;;3.15;2.25;;;11.90;78.20;;;;;;6207737;23;20016;-93
2021/12/29 09:01:29;;;;;;;3.33;2.38;;;11.90;78.20;;;;;;6226161;23;20091;-94
2021/12/29 09:05:18;;;;;;;3.25;2.50;;;11.90;78.20;;;;;;6223930;23;20008;-94
2021/12/29 09:08:24;;;;;;;4.28;2.50;;;11.90;78.10;;;;;;6239370;23;20384;-92
2021/12/29 09:11:33;;;;;;;3.40;2.42;;;11.90;78.20;;;;;;6221720;23;20012;-93
2021/12/29 09:14:44;;;;;;;4.07;2.90;;;11.90;78.20;;;;;;6245425;23;20009;-93
2021/12/29 09:24:16;;;;;;;3.90;2.75;;;11.90;78.10;;;;;;6245330;23;20063;-93
2021/12/29 09:31:14;;;;;;;4.90;3.03;;;11.90;78.20;;;;;;6241911;23;20439;-93
2021/12/29 09:37:47;;;;;;;3.90;2.70;;;11.90;78.30;;;;;;6234651;23;20087;-94
2021/12/29 09:41:38;;;;;;;;;;;;;;;;;;;;;
2021/12/29 09:45:28;;;;;;;;;;;;;;;;;;;;;
2021/12/29 09:51:36;;;;;;;4.30;2.55;;;11.90;78.40;;;;;;6273958;22;20368;-90
2021/12/29 09:54:09;;;;;;;5.13;3.67;;;11.90;78.30;;;;;;6259241;22;20010;-91
2021/12/29 09:56:48;;;;;;;4.60;3.45;;;11.90;78.30;;;;;;6256371;22;20083;-91
2021/12/29 09:59:35;;;;;;;4.95;3.28;;;11.90;78.40;;;;;;6281646;22;20061;-90
2021/12/29 10:05:46;;;;;;;;;;;;;;;;;;;;;
2021/12/29 10:08:47;;;;;;;6.22;5.22;;;11.90;78.30;;;;;;6304819;22;20011;-92
2021/12/29 10:14:38;;;;;;;5.85;5.05;;;11.90;78.20;;;;;;6275453;22;20086;-91
2021/12/29 10:17:38;;;;;;;5.90;4.45;;;11.90;78.30;;;;;;6235254;22;20349;-91
2021/12/29 10:23:11;;;;;;;6.10;4.53;;;11.90;78.30;;;;;;6281125;22;20007;-90
2021/12/29 10:26:14;;;;;;;5.28;4.38;;;11.90;78.20;;;;;;6280427;22;20007;-92
2021/12/29 10:29:13;;;;;;;;;;;;;;;;;;;;;
2021/12/29 10:32:23;;;;;;;;;;;;;;;;;;;;;
2021/12/29 10:35:43;;;;;;;5.20;3.95;;;11.90;78.20;;;;;;6277622;22;20003;-92
2021/12/29 10:38:32;;;;;;;5.30;3.97;;;12.00;78.20;;;;;;6308285;22;20090;-91
2021/12/29 10:41:18;;;;;;;4.80;3.65;;;12.00;78.20;;;;;;6234163;22;20017;-89
2021/12/29 10:44:17;;;;;;;4.72;3.83;;;12.00;78.20;;;;;;6280946;22;20007;-91
2021/12/29 10:46:58;;;;;;;5.38;3.83;;;12.00;78.20;;;;;;6237833;23;20071;-91
2021/12/29 10:49:41;;;;;;;;;;;;;;;;;;;;;
2021/12/29 10:56:02;;;;;;;5.05;3.75;;;12.00;78.30;;;;;;6237998;23;20000;-91
2021/12/29 10:58:38;;;;;;;4.90;3.83;;;12.00;78.30;;;;;;6236830;23;20010;-91
2021/12/29 11:01:44;;;;;;;5.25;4.28;;;12.00;78.20;;;;;;6224350;23;20087;-91
2021/12/29 11:04:25;;;;;;;5.38;3.85;;;12.00;78.30;;;;;;6245607;22;20111;-91
2021/12/29 11:07:15;;;;;;;;;;;;;;;;;;;;;
2021/12/29 11:13:04;;;;;;;;;;;;;;;;;;;;;
2021/12/29 11:15:49;;;;;;;4.40;3.38;;;12.00;78.20;;;;;;6245338;23;20062;-91
2021/12/29 11:18:21;;;;;;;4.45;3.55;;;12.10;78.20;;;;;;6248409;22;20000;-90
2021/12/29 11:21:01;;;;;;;4.97;3.97;;;12.10;78.20;;;;;;6262727;22;20048;-91
2021/12/29 11:23:42;;;;;;;5.03;3.50;;;12.10;78.30;;;;;;6235797;23;20001;-92
2021/12/29 11:26:13;;;;;;;4.85;3.60;;;12.10;78.20;;;;;;6172098;23;20012;-91
2021/12/29 11:28:42;;;;;;;5.05;3.58;;;12.10;78.20;;;;;;6219829;23;20094;-91
2021/12/29 11:31:09;;;;;;;4.50;3.63;;;12.10;78.20;;;;;;6245290;23;20327;-90
2021/12/29 11:33:43;;;;;;;5.43;3.92;;;12.10;78.20;;;;;;6220226;23;20007;-93
2021/12/29 11:36:21;;;;;;;4.72;3.13;;;12.10;78.20;;;;;;6223531;23;20084;-90
2021/12/29 11:39:00;;;;;;;4.82;3.88;;;12.10;78.20;;;;;;6245262;23;20083;-92
2021/12/29 11:41:29;;;;;;;4.70;3.42;;;12.20;78.20;;;;;;6220704;23;20015;-92
2021/12/29 11:44:02;;;;;;;5.80;3.42;;;12.20;78.20;;;;;;6245091;22;19996;-89
2021/12/29 11:46:33;;;;;;;5.47;4.10;;;12.20;78.20;;;;;;6225379;22;20015;-87
2021/12/29 11:49:11;;;;;;;5.35;3.67;;;12.20;78.20;;;;;;6225537;22;20012;-89
2021/12/29 11:55:12;;;;;;;4.75;3.53;;;12.20;78.20;;;;;;6234406;22;20430;-90
2021/12/29 11:57:46;;;;;;;4.80;3.80;;;12.20;78.20;;;;;;6250358;22;20344;-89
2021/12/29 12:00:39;;;;;;;5.22;3.50;;;12.20;78.10;;;;;;6224284;22;20035;-90
2021/12/29 12:03:57;;;;;;;4.53;3.58;;;12.20;78.20;;;;;;6221584;22;20034;-91
2021/12/29 12:07:07;;;;;;;4.78;3.08;;;12.20;78.20;;;;;;6213303;22;20008;-87
2021/12/29 12:09:53;;;;;;;;;;;12.20;78.20;;;;;;6226134;22;20007;-87
2021/12/29 12:15:38;;;;;;;5.35;3.60;;;12.20;78.20;;;;;;4527326;27;16090834;-89
2021/12/29 12:18:22;;;;;;;5.47;3.85;;;12.20;78.20;;;;;;5051485;28;20044;-88
2021/12/29 12:21:21;;;;;;;4.70;3.50;;;12.20;78.10;;;;;;5078247;28;20027;-88
2021/12/29 12:24:26;;;;;;;4.63;3.53;;;12.20;78.20;;;;;;5063783;28;20071;-89
2021/12/29 12:27:03;;;;;;;4.75;3.67;;;12.20;78.10;;;;;;5093279;28;20024;-89
2021/12/29 12:29:59;;;;;;;4.75;3.47;;;12.20;78.10;;;;;;5063976;28;20027;-89
2021/12/29 12:33:01;;;;;;;4.43;3.17;;;12.20;78.20;;;;;;5072740;28;20055;-86
2021/12/29 12:35:38;;;;;;;4.60;3.30;;;12.20;78.10;;;;;;5088008;28;20048;-88
2021/12/29 12:38:43;;;;;;;;;;;;;;;;;;;;;
2021/12/29 12:41:40;;;;;;;4.35;3.13;;;12.20;78.20;;;;;;5077520;28;20044;-92
2021/12/29 12:44:19;;;;;;;4.20;3.47;;;12.30;78.20;;;;;;5069611;28;20068;-87
2021/12/29 12:46:50;;;;;;;4.40;3.40;;;12.30;78.00;;;;;;5072777;28;20025;-87
2021/12/29 12:49:21;;;;;;;5.10;3.50;;;12.30;78.10;;;;;;5048341;28;20028;-89
2021/12/29 12:52:16;;;;;;;4.43;3.55;;;12.20;78.00;;;;;;5072834;28;20024;-90
2021/12/29 12:54:51;;;;;;;;;;;12.30;78.20;;;;;;5069118;28;20503;-88
2021/12/29 12:57:50;;;;;;;4.40;3.50;;;12.30;78.60;;;;;;5081548;28;19909;-87
2021/12/29 13:00:22;;;;;;;4.90;3.40;;;12.20;78.00;;;;;;5063387;28;20020;-87
2021/12/29 13:03:27;;;;;;;;;;;;;;;;;;;;;
2021/12/29 13:06:05;;;;;;;4.82;3.53;;;12.30;78.90;;;;;;5081307;28;20098;-87
2021/12/29 13:08:53;;;;;;;4.13;3.22;;;12.30;78.10;;;;;;5070002;28;20473;-87
2021/12/29 13:11:40;;;;;;;4.40;3.33;;;12.30;78.20;;;;;;5061339;28;20033;-88
2021/12/29 13:14:25;;;;;;;4.30;3.38;;;12.30;78.00;;;;;;5068133;28;20056;-88
2021/12/29 13:17:25;;;;;;;;;;;;;;;;;;;;;
2021/12/29 13:20:04;;;;;;;3.53;2.58;;;12.30;78.00;;;;;;5086150;28;19957;-92
2021/12/29 13:23:04;;;;;;;;;;;;;;;;;;;;;
2021/12/29 13:25:56;;;;;;;4.43;3.30;;;12.30;78.00;;;;;;5064770;28;20035;-93
2021/12/29 13:28:29;;;;;;;5.45;3.53;;;12.30;78.00;;;;;;5053024;28;20025;-87
2021/12/29 13:31:18;;;;;;;5.75;3.35;;;12.30;78.00;;;;;;5065738;28;20079;-86
2021/12/29 13:34:04;;;;;;;4.43;3.42;;;12.30;78.10;;;;;;5055973;28;20032;-91
2021/12/29 13:37:10;;;;;;;4.25;3.25;;;12.30;78.00;;;;;;5048036;28;20031;-91
2021/12/29 13:39:53;;;;;;;4.35;3.38;;;12.30;78.10;;;;;;5050314;28;20032;-92
2021/12/29 13:42:38;;;;;;;4.70;3.20;;;12.30;78.00;;;;;;5051242;28;20043;-89
2021/12/29 13:45:26;;;;;;;4.97;3.47;;;12.30;78.00;;;;;;5047492;28;20033;-88
2021/12/29 13:48:22;;;;;;;4.70;3.50;;;12.30;78.00;;;;;;5070922;28;20044;-91
2021/12/29 13:51:19;;;;;;;;;;;;;;;;;;;;;
2021/12/29 13:53:59;;;;;;;4.70;3.60;;;12.30;77.90;;;;;;5073646;28;20036;-87
2021/12/29 13:56:29;;;;;;;4.80;3.53;;;12.30;77.90;;;;;;5051674;28;20036;-89
2021/12/29 13:59:16;;;;;;;4.72;3.40;;;12.30;77.90;;;;;;5074288;28;20377;-89
2021/12/29 14:01:58;;;;;;;4.32;3.50;;;12.30;78.00;;;;;;5067782;28;20384;-88
2021/12/29 14:04:47;;;;;;;4.43;3.33;;;12.30;77.90;;;;;;5067369;28;20063;-88
2021/12/29 14:07:39;;;;;;;4.45;3.35;;;12.30;77.90;;;;;;5037444;28;20123;-90
2021/12/29 14:10:13;;;;;;;4.28;3.10;;;12.30;78.00;;;;;;5064008;28;20045;-85
2021/12/29 14:12:40;;;;;;;4.72;3.50;;;12.30;77.90;;;;;;5040416;28;20051;-88
2021/12/29 14:15:13;;;;;;;4.43;3.40;;;12.30;77.80;;;;;;5052485;28;20049;-91
2021/12/29 14:17:57;;;;;;;4.15;3.22;;;12.30;77.90;;;;;;5056640;28;20464;-86
2021/12/29 14:24:02;;;;;;;3.85;2.85;;;12.30;77.80;;;;;;5043037;28;20159;-87
2021/12/29 14:27:03;;;;;;;4.82;3.80;;;12.30;77.80;;;;;;5052169;28;20052;-87
2021/12/29 14:29:36;;;;;;;4.05;2.75;;;12.30;77.90;;;;;;5062826;28;20161;-86
2021/12/29 14:32:18;;;;;;;3.90;2.92;;;12.30;77.90;;;;;;5034944;28;20044;-87
2021/12/29 14:36:08;;;;;;;4.13;2.88;;;12.30;77.80;;;;;;5048909;28;20067;-88
2021/12/29 14:38:58;;;;;;;4.72;2.92;;;12.30;78.00;;;;;;5049886;28;20058;-89
2021/12/29 14:41:49;;;;;;;4.55;3.10;;;12.30;77.90;;;;;;5055062;28;20127;-87
2021/12/29 14:44:32;;;;;;;4.32;2.80;;;12.30;77.80;;;;;;5038117;28;20477;-89
2021/12/29 14:47:00;;;;;;;4.97;2.92;;;12.30;77.90;;;;;;5044876;28;20040;-87
2021/12/29 14:49:42;;;;;;;4.30;2.95;;;12.30;77.80;;;;;;5050627;28;20086;-87
2021/12/29 14:52:21;;;;;;;5.70;3.50;;;12.30;77.80;;;;;;5052309;28;20473;-86
2021/12/29 14:54:59;;;;;;;4.82;3.15;;;12.30;77.80;;;;;;5055165;28;20067;-89
2021/12/29 14:58:06;;;;;;;3.70;2.78;;;12.30;77.80;;;;;;5053895;28;20044;-89
2021/12/29 15:01:06;;;;;;;4.38;2.88;;;12.30;78.00;;;;;;5036677;28;20035;-90
2021/12/29 15:03:44;;;;;;;4.38;3.25;;;12.30;77.80;;;;;;5057326;28;20311;-90
2021/12/29 15:06:47;;;;;;;3.42;2.70;;;12.30;77.80;;;;;;5060494;28;20044;-88
2021/12/29 15:09:39;;;;;;;4.38;2.80;;;12.30;77.90;;;;;;5046663;28;20032;-90
2021/12/29 15:12:27;;;;;;;4.90;3.10;;;12.30;77.90;;;;;;5048779;28;20036;-88
2021/12/29 15:15:25;;;;;;;4.45;3.13;;;12.30;77.80;;;;;;5050892;28;20131;-88
2021/12/29 15:18:02;;;;;;;4.07;2.85;;;12.30;77.90;;;;;;5054929;28;20051;-87
2021/12/29 15:21:03;;;;;;;4.38;3.08;;;12.30;77.80;;;;;;5070627;28;20040;-90
2021/12/29 15:24:07;;;;;;;3.85;2.80;;;12.30;77.90;;;;;;5053665;28;20037;-88
2021/12/29 15:26:35;;;;;;;4.05;2.85;;;12.30;77.80;;;;;;5065759;28;20032;-88
2021/12/29 15:29:27;;;;;;;3.90;2.80;;;12.30;77.80;;;;;;5046805;28;20051;-89
2021/12/29 15:32:08;;;;;;;4.50;3.10;;;12.30;78.00;;;;;;5010190;28;20088;-89
2021/12/29 15:34:42;;;;;;;4.45;2.75;;;12.30;77.80;;;;;;5047577;28;20029;-87
2021/12/29 15:37:16;;;;;;;3.72;2.60;;;12.30;77.80;;;;;;5022113;28;20040;-88
2021/12/29 15:39:44;;;;;;;5.53;2.88;;;12.30;77.80;;;;;;5071525;28;20025;-87
2021/12/29 15:42:22;;;;;;;4.75;3.00;;;12.30;77.80;;;;;;5037916;28;20025;-88
2021/12/29 15:45:01;;;;;;;3.58;2.67;;;12.30;77.80;;;;;;5069686;28;20474;-87
2021/12/29 15:47:39;;;;;;;4.10;2.53;;;12.30;77.80;;;;;;5053132;28;20040;-89
2021/12/29 15:50:58;;;;;;;4.45;2.80;;;12.30;77.80;;;;;;5051238;28;20064;-92
2021/12/29 15:57:22;;;;;;;3.58;2.50;;;12.30;77.90;;;;;;5039714;28;20393;-89
2021/12/29 16:00:24;;;;;;;3.47;2.67;;;12.30;77.80;;;;;;5054706;28;20453;-90
2021/12/29 16:03:36;;;;;;;;;;;;;;;;;;;;;
2021/12/29 16:13:35;;;;;;;;;;;;;;;;;;;;;
2021/12/29 16:20:16;;;;;;;3.70;2.30;;;12.20;77.90;;;;;;4996225;28;20034;-90
2021/12/29 16:23:54;;;;;;;;;;;;;;;;;;;;;
2021/12/29 16:27:24;;;;;;;;;;;;;;;;;;;;;
2021/12/29 16:33:32;;;;;;;2.92;2.05;;;12.20;77.90;;;;;;5022953;28;20027;-89
2021/12/29 16:37:09;;;;;;;2.55;2.05;;;12.10;77.80;;;;;;5058965;28;20032;-89
2021/12/29 16:40:34;;;;;;;;;;;;;;;;;;;;;
2021/12/29 16:44:07;;;;;;;;;;;;;;;;;;;;;
2021/12/29 16:50:50;;;;;;;2.83;2.10;;;12.20;78.20;;;;;;5045196;28;20507;-90
2021/12/29 16:54:27;;;;;;;;;;;;;;;;;;;;;
2021/12/29 16:57:51;;;;;;;;;;;;;;;;;;;;;
2021/12/29 17:07:39;;;;;;;2.70;1.95;;;12.20;78.20;;;;;;5072291;28;20033;-89
2021/12/29 17:10:52;;;;;;;2.67;2.03;;;12.20;78.10;;;;;;5041115;28;20482;-89
2021/12/29 17:13:54;;;;;;;2.58;2.03;;;12.20;78.20;;;;;;5072024;28;20161;-88
2021/12/29 17:17:01;;;;;;;;;;;;;;;;;;;;;
2021/12/29 17:19:57;;;;;;;2.23;2.03;;;12.20;78.20;;;;;;5069659;28;20039;-87
2021/12/29 17:22:24;;;;;;;2.80;1.95;;;12.20;78.10;;;;;;5064100;28;20860;-85
2021/12/29 17:25:12;;;;;;;2.65;2.10;;;12.20;78.10;;;;;;5054502;28;20037;-91
2021/12/29 17:27:44;;;;;;;3.03;2.15;;;12.20;78.20;;;;;;5043184;28;20458;-85
2021/12/29 17:30:27;;;;;;;2.97;1.98;;;12.20;78.10;;;;;;5065844;28;20029;-89
2021/12/29 17:54:33;;;;;;;2.38;1.95;;;12.20;78.40;;;;;;4890984;29;20099;-89